Time;durP1;ratioP1;P1;durP2;ratioP2;P2;SDS_P1;SDS_P2;PMS_P1;PMS_P2;Temp;Humidity;BMP_temperature;BMP_pressure;BME280_temperature;BME280_humidity;BME280_pressure;Samples;Min_cycle;Max_cycle;Signal;HPM_P1;HPM_P2
2021/03/28 00:01:34;;;;;;;4.82;1.25;;;;;;;;;;5096265;28;20472;-65
2021/03/28 00:04:00;;;;;;;7.32;1.42;;;;;;;;;;5095812;28;20051;-65
2021/03/28 00:06:28;;;;;;;4.07;1.25;;;;;;;;;;5096321;28;20016;-65
2021/03/28 00:09:04;;;;;;;3.08;1.17;;;;;;;;;;5078127;28;20031;-65
2021/03/28 00:11:30;;;;;;;4.40;1.55;;;;;;;;;;5077831;28;20051;-65
2021/03/28 00:13:56;;;;;;;3.97;1.00;;;;;;;;;;5078010;28;20020;-65
2021/03/28 00:16:25;;;;;;;3.45;1.02;;;;;;;;;;5096146;28;20020;-65
2021/03/28 00:18:54;;;;;;;3.60;1.13;;;;;;;;;;5095698;28;20019;-65
2021/03/28 00:21:21;;;;;;;1.50;0.90;;;;;;;;;;5095706;28;20012;-65
2021/03/28 00:23:50;;;;;;;1.27;0.90;;;;;;;;;;5077845;28;20530;-65
2021/03/28 00:26:25;;;;;;;5.78;1.55;;;;;;;;;;5095840;28;20008;-65
2021/03/28 00:29:02;;;;;;;2.15;1.08;;;;;;;;;;5077340;28;20111;-65
2021/03/28 00:31:30;;;;;;;5.20;1.50;;;;;;;;;;5095924;28;20020;-65
2021/03/28 00:34:01;;;;;;;5.60;1.15;;;;;;;;;;5077156;28;20041;-65
2021/03/28 00:36:34;;;;;;;1.83;0.95;;;;;;;;;;5077485;28;20016;-65
2021/03/28 00:39:00;;;;;;;5.95;1.13;;;;;;;;;;5077542;28;20396;-65
2021/03/28 00:41:40;;;;;;;3.28;1.23;;;;;;;;;;5077774;28;20048;-65
2021/03/28 00:44:15;;;;;;;2.65;0.95;;;;;;;;;;5095518;28;20019;-65
2021/03/28 00:46:40;;;;;;;7.65;1.45;;;;;;;;;;5094600;28;20404;-65
2021/03/28 00:49:07;;;;;;;3.83;1.20;;;;;;;;;;5077301;28;20020;-65
2021/03/28 00:51:34;;;;;;;6.35;1.23;;;;;;;;;;5077478;28;20035;-65
2021/03/28 00:54:10;;;;;;;2.38;0.88;;;;;;;;;;5077509;28;20016;-65
2021/03/28 00:56:39;;;;;;;3.28;0.93;;;;;;;;;;5094965;28;20473;-65
2021/03/28 00:59:07;;;;;;;2.95;1.20;;;;;;;;;;5095356;28;20028;-65
2021/03/28 01:01:36;;;;;;;1.02;0.93;;;;;;;;;;5095446;28;20016;-65
2021/03/28 01:04:20;;;;;;;6.18;1.15;;;;;;;;;;5094623;28;20031;-65
2021/03/28 01:06:49;;;;;;;3.03;1.00;;;;;;;;;;5095043;28;20023;-65
2021/03/28 01:09:14;;;;;;;1.17;1.08;;;;;;;;;;5076791;28;20103;-65
2021/03/28 01:11:41;;;;;;;1.73;1.10;;;;;;;;;;5095096;28;20120;-65
2021/03/28 01:14:16;;;;;;;2.00;0.98;;;;;;;;;;5094951;28;20020;-65
2021/03/28 01:16:51;;;;;;;3.20;1.25;;;;;;;;;;5094613;28;20024;-65
2021/03/28 01:19:29;;;;;;;3.72;1.38;;;;;;;;;;5094920;28;20021;-65
2021/03/28 01:22:04;;;;;;;1.70;1.00;;;;;;;;;;5094829;28;20444;-65
2021/03/28 01:24:39;;;;;;;5.00;1.30;;;;;;;;;;5094489;28;20012;-65
2021/03/28 01:27:14;;;;;;;2.80;1.00;;;;;;;;;;5094589;28;20052;-65
2021/03/28 01:29:39;;;;;;;3.90;1.05;;;;;;;;;;5094576;28;20054;-65
2021/03/28 01:32:08;;;;;;;4.15;1.27;;;;;;;;;;5094610;28;20392;-65
2021/03/28 01:34:42;;;;;;;2.05;1.08;;;;;;;;;;5093406;28;20046;-65
2021/03/28 01:37:11;;;;;;;1.02;0.90;;;;;;;;;;5094524;28;20040;-65
2021/03/28 01:39:46;;;;;;;3.25;1.20;;;;;;;;;;5094435;28;20043;-65
2021/03/28 01:42:19;;;;;;;5.53;1.40;;;;;;;;;;5094403;28;20103;-65
2021/03/28 01:44:51;;;;;;;3.33;1.33;;;;;;;;;;5093869;28;20020;-65
2021/03/28 01:47:25;;;;;;;3.85;1.20;;;;;;;;;;5094280;28;20020;-64
2021/03/28 01:50:01;;;;;;;1.90;1.05;;;;;;;;;;5094176;28;20016;-65
2021/03/28 01:52:28;;;;;;;3.30;1.45;;;;;;;;;;5076230;28;20035;-65
2021/03/28 01:55:03;;;;;;;4.05;1.25;;;;;;;;;;5094108;28;20100;-65
2021/03/28 01:57:38;;;;;;;4.13;1.00;;;;;;;;;;5075758;28;20020;-65
2021/03/28 02:00:13;;;;;;;2.65;1.15;;;;;;;;;;5094076;28;20016;-65
2021/03/28 02:02:41;;;;;;;2.42;1.40;;;;;;;;;;5093835;28;20016;-65
2021/03/28 02:05:08;;;;;;;1.88;1.20;;;;;;;;;;5093158;28;20109;-65
2021/03/28 02:07:43;;;;;;;4.45;1.10;;;;;;;;;;5094123;28;20024;-65
2021/03/28 02:10:19;;;;;;;3.88;1.13;;;;;;;;;;5093771;28;20044;-65
2021/03/28 02:12:52;;;;;;;3.65;1.15;;;;;;;;;;5093486;28;20511;-65
2021/03/28 02:15:27;;;;;;;1.08;0.90;;;;;;;;;;5093993;28;20027;-65
2021/03/28 02:18:02;;;;;;;3.80;1.05;;;;;;;;;;5093633;28;20493;-65
2021/03/28 02:20:27;;;;;;;2.95;0.88;;;;;;;;;;5093466;28;20053;-65
2021/03/28 02:23:02;;;;;;;1.80;0.98;;;;;;;;;;5093349;28;20035;-65
2021/03/28 02:25:30;;;;;;;2.67;1.05;;;;;;;;;;5093562;28;20095;-65
2021/03/28 02:28:08;;;;;;;2.23;1.13;;;;;;;;;;5093700;28;20060;-65
2021/03/28 02:30:45;;;;;;;1.20;0.98;;;;;;;;;;5093221;28;20032;-65
2021/03/28 02:33:20;;;;;;;4.75;1.23;;;;;;;;;;5092751;28;20027;-65
2021/03/28 02:35:46;;;;;;;3.75;1.02;;;;;;;;;;5093563;28;20051;-65
2021/03/28 02:38:15;;;;;;;2.03;1.00;;;;;;;;;;5075139;28;20019;-65
2021/03/28 02:40:50;;;;;;;1.57;0.80;;;;;;;;;;5093328;28;20008;-65
2021/03/28 02:43:25;;;;;;;1.45;1.17;;;;;;;;;;5093376;28;20016;-65
2021/03/28 02:46:05;;;;;;;1.95;1.17;;;;;;;;;;5093389;28;20062;-65
2021/03/28 02:48:30;;;;;;;4.57;1.10;;;;;;;;;;5093019;28;20464;-65
2021/03/28 02:51:05;;;;;;;1.80;1.10;;;;;;;;;;5093212;28;20107;-65
2021/03/28 02:53:40;;;;;;;1.65;1.00;;;;;;;;;;5092887;28;20432;-65
2021/03/28 02:56:16;;;;;;;2.78;0.90;;;;;;;;;;5092813;28;20093;-65
2021/03/28 02:58:45;;;;;;;2.22;1.08;;;;;;;;;;5074787;28;20016;-65
2021/03/28 03:01:11;;;;;;;1.73;1.10;;;;;;;;;;5093138;28;20058;-65
2021/03/28 03:03:47;;;;;;;1.63;1.08;;;;;;;;;;5074200;28;20024;-65
2021/03/28 03:06:12;;;;;;;2.42;1.30;;;;;;;;;;5092905;28;20091;-65
2021/03/28 03:08:38;;;;;;;2.63;1.10;;;;;;;;;;5092276;28;20019;-65
2021/03/28 03:11:13;;;;;;;2.90;1.20;;;;;;;;;;5074673;28;20019;-65
2021/03/28 03:13:47;;;;;;;2.45;1.50;;;;;;;;;;5092863;28;20111;-65
2021/03/28 03:16:13;;;;;;;4.32;1.40;;;;;;;;;;5092881;28;20107;-65
2021/03/28 03:18:39;;;;;;;1.63;1.00;;;;;;;;;;5092745;28;20047;-65
2021/03/28 03:21:07;;;;;;;3.30;1.40;;;;;;;;;;5092719;28;20020;-65
2021/03/28 03:23:42;;;;;;;2.38;1.10;;;;;;;;;;5092786;28;20441;-65
2021/03/28 03:26:07;;;;;;;1.73;1.30;;;;;;;;;;5092769;28;20016;-65
2021/03/28 03:28:33;;;;;;;2.80;1.20;;;;;;;;;;5092701;28;20116;-65
2021/03/28 03:31:00;;;;;;;2.10;1.23;;;;;;;;;;5074584;28;20044;-65
2021/03/28 03:33:28;;;;;;;1.55;1.02;;;;;;;;;;5073387;28;20493;-65
2021/03/28 03:36:03;;;;;;;1.40;1.10;;;;;;;;;;5092605;28;20031;-65
2021/03/28 03:38:37;;;;;;;2.35;1.30;;;;;;;;;;5092618;28;20114;-65
2021/03/28 03:41:07;;;;;;;2.10;1.38;;;;;;;;;;5092562;28;20028;-65
2021/03/28 03:43:42;;;;;;;2.63;1.30;;;;;;;;;;5092716;28;20418;-65
2021/03/28 03:46:11;;;;;;;2.75;1.40;;;;;;;;;;5092521;28;20086;-65
2021/03/28 03:48:46;;;;;;;3.97;1.38;;;;;;;;;;5092554;28;20028;-65
2021/03/28 03:51:21;;;;;;;3.38;1.23;;;;;;;;;;5092339;28;20056;-65
2021/03/28 03:53:50;;;;;;;1.75;1.30;;;;;;;;;;5092466;28;20020;-65
2021/03/28 03:56:18;;;;;;;3.95;1.30;;;;;;;;;;5092353;28;20016;-65
2021/03/28 03:58:53;;;;;;;3.60;1.40;;;;;;;;;;5074103;28;20100;-65
2021/03/28 04:01:23;;;;;;;3.00;1.40;;;;;;;;;;5092370;28;20020;-65
2021/03/28 04:03:58;;;;;;;2.90;1.30;;;;;;;;;;5091732;28;20031;-65
2021/03/28 04:06:33;;;;;;;3.88;1.42;;;;;;;;;;5092516;28;20024;-65
2021/03/28 04:09:02;;;;;;;2.25;1.15;;;;;;;;;;5073976;28;20113;-65
2021/03/28 04:11:37;;;;;;;2.55;1.45;;;;;;;;;;5092256;28;20031;-65
2021/03/28 04:14:09;;;;;;;2.40;1.40;;;;;;;;;;5092390;28;20024;-65
2021/03/28 04:16:44;;;;;;;1.83;1.35;;;;;;;;;;5092053;28;20012;-65
2021/03/28 04:19:19;;;;;;;6.97;2.60;;;;;;;;;;5092191;28;20035;-65
2021/03/28 04:21:54;;;;;;;3.33;1.35;;;;;;;;;;5093688;28;20016;-65
2021/03/28 04:24:29;;;;;;;2.90;1.48;;;;;;;;;;5095889;28;20108;-65
2021/03/28 04:27:04;;;;;;;3.97;1.40;;;;;;;;;;5095768;28;20028;-65
2021/03/28 04:29:30;;;;;;;5.72;1.60;;;;;;;;;;5096028;28;20081;-65
2021/03/28 04:32:04;;;;;;;4.60;1.67;;;;;;;;;;5060598;28;20028;-65
2021/03/28 04:34:39;;;;;;;3.55;1.60;;;;;;;;;;5094688;28;20048;-65
2021/03/28 04:37:06;;;;;;;4.25;1.88;;;;;;;;;;5095617;28;20023;-65
2021/03/28 04:39:41;;;;;;;2.85;1.70;;;;;;;;;;5077480;28;20122;-65
2021/03/28 04:42:16;;;;;;;2.10;1.60;;;;;;;;;;5077349;28;20039;-65
2021/03/28 04:44:51;;;;;;;4.78;1.50;;;;;;;;;;5095311;28;20396;-65
2021/03/28 04:47:26;;;;;;;5.28;1.70;;;;;;;;;;5095603;28;20044;-65
2021/03/28 04:49:51;;;;;;;3.50;1.60;;;;;;;;;;5095728;28;20485;-65
2021/03/28 04:52:17;;;;;;;3.05;1.33;;;;;;;;;;5095199;28;20159;-65
2021/03/28 04:54:50;;;;;;;3.90;1.77;;;;;;;;;;5094893;28;20008;-65
2021/03/28 04:57:20;;;;;;;2.35;1.65;;;;;;;;;;5095018;28;20369;-65
2021/03/28 04:59:55;;;;;;;4.32;2.13;;;;;;;;;;5095110;28;20109;-65
2021/03/28 05:02:24;;;;;;;7.80;2.47;;;;;;;;;;5095127;28;20475;-65
2021/03/28 05:05:00;;;;;;;6.32;2.35;;;;;;;;;;5094225;28;20019;-65
2021/03/28 05:07:35;;;;;;;4.47;1.98;;;;;;;;;;5095005;28;20400;-65
2021/03/28 05:10:19;;;;;;;6.57;2.30;;;;;;;;;;5095143;28;20021;-65
2021/03/28 05:12:59;;;;;;;5.95;2.15;;;;;;;;;;5094847;28;20024;-65
2021/03/28 05:15:40;;;;;;;4.65;2.35;;;;;;;;;;5095149;28;20024;-65
2021/03/28 05:18:15;;;;;;;6.32;2.65;;;;;;;;;;5094871;28;20016;-65
2021/03/28 05:20:40;;;;;;;5.30;2.40;;;;;;;;;;5094492;28;20016;-65
2021/03/28 05:23:18;;;;;;;9.30;2.95;;;;;;;;;;5094916;28;20018;-65
2021/03/28 05:25:52;;;;;;;14.57;2.95;;;;;;;;;;5094925;28;20028;-65
2021/03/28 05:28:30;;;;;;;6.20;2.80;;;;;;;;;;5094573;28;20016;-65
2021/03/28 05:31:08;;;;;;;4.93;3.03;;;;;;;;;;5094648;28;20046;-65
2021/03/28 05:33:34;;;;;;;4.65;1.90;;;;;;;;;;5075138;28;20028;-65
2021/03/28 05:36:09;;;;;;;5.32;2.42;;;;;;;;;;5094395;28;20384;-65
2021/03/28 05:38:44;;;;;;;6.63;2.30;;;;;;;;;;5094467;28;20049;-65
2021/03/28 05:41:19;;;;;;;5.25;2.20;;;;;;;;;;5075983;28;20019;-65
2021/03/28 05:43:54;;;;;;;6.13;2.33;;;;;;;;;;5076554;28;20372;-65
2021/03/28 05:46:29;;;;;;;6.53;2.17;;;;;;;;;;5076138;28;20031;-65
2021/03/28 05:49:04;;;;;;;6.13;2.22;;;;;;;;;;5094415;28;20023;-65
2021/03/28 05:51:29;;;;;;;4.78;2.17;;;;;;;;;;5094394;28;20023;-65
2021/03/28 05:54:04;;;;;;;6.30;2.00;;;;;;;;;;5094160;28;20572;-65
2021/03/28 05:56:39;;;;;;;7.13;1.92;;;;;;;;;;5094018;28;20023;-65
2021/03/28 05:59:04;;;;;;;5.15;1.80;;;;;;;;;;5093999;28;20012;-65
2021/03/28 06:01:40;;;;;;;6.40;1.85;;;;;;;;;;5076084;28;20379;-65
2021/03/28 06:04:05;;;;;;;2.85;1.60;;;;;;;;;;5093339;28;20023;-65
2021/03/28 06:06:49;;;;;;;6.85;2.53;;;;;;;;;;5058905;28;20050;-65
2021/03/28 06:09:24;;;;;;;2.80;1.30;;;;;;;;;;5093706;28;20045;-65
2021/03/28 06:11:50;;;;;;;5.20;2.00;;;;;;;;;;5075720;28;20458;-65
2021/03/28 06:14:25;;;;;;;3.38;1.48;;;;;;;;;;5093727;28;20069;-65
2021/03/28 06:16:53;;;;;;;3.30;1.48;;;;;;;;;;5093420;28;20504;-65
2021/03/28 06:19:19;;;;;;;2.20;1.20;;;;;;;;;;5093626;28;20380;-65
2021/03/28 06:21:53;;;;;;;2.42;1.30;;;;;;;;;;5093808;28;20020;-65
2021/03/28 06:24:28;;;;;;;2.92;1.55;;;;;;;;;;5075397;28;20451;-65
2021/03/28 06:26:57;;;;;;;2.20;1.20;;;;;;;;;;5093212;28;20028;-65
2021/03/28 06:29:32;;;;;;;3.40;1.15;;;;;;;;;;5075219;28;20031;-65
2021/03/28 06:31:58;;;;;;;6.15;1.10;;;;;;;;;;5093231;28;20035;-65
2021/03/28 06:34:24;;;;;;;3.33;1.00;;;;;;;;;;5074387;28;20040;-65
2021/03/28 06:37:03;;;;;;;2.22;1.25;;;;;;;;;;5093104;28;20043;-65
2021/03/28 06:39:42;;;;;;;1.33;0.90;;;;;;;;;;5075267;28;20023;-65
2021/03/28 06:42:09;;;;;;;1.63;1.05;;;;;;;;;;5093438;28;20032;-65
2021/03/28 06:44:44;;;;;;;1.30;1.00;;;;;;;;;;5092219;28;20027;-65
2021/03/28 06:47:09;;;;;;;2.88;1.20;;;;;;;;;;5093104;28;20024;-65
2021/03/28 06:49:44;;;;;;;8.07;1.38;;;;;;;;;;5074962;28;20024;-65
2021/03/28 06:52:14;;;;;;;2.25;1.10;;;;;;;;;;5093061;28;20081;-65
2021/03/28 06:54:49;;;;;;;4.30;1.23;;;;;;;;;;5074751;28;20460;-65
2021/03/28 06:57:24;;;;;;;2.28;1.27;;;;;;;;;;5075257;28;20098;-65
2021/03/28 06:59:49;;;;;;;2.40;1.20;;;;;;;;;;5093311;28;20019;-65
2021/03/28 07:02:24;;;;;;;2.47;1.23;;;;;;;;;;5093047;28;20433;-65
2021/03/28 07:05:00;;;;;;;4.15;1.20;;;;;;;;;;5092177;28;20052;-65
2021/03/28 07:07:25;;;;;;;1.55;1.10;;;;;;;;;;5074753;28;20016;-65
2021/03/28 07:10:02;;;;;;;2.90;1.20;;;;;;;;;;5074815;28;20065;-65
2021/03/28 07:12:35;;;;;;;3.15;1.10;;;;;;;;;;5092903;28;20477;-65
2021/03/28 07:15:10;;;;;;;6.18;1.70;;;;;;;;;;5092782;28;20419;-65
2021/03/28 07:17:45;;;;;;;2.90;1.33;;;;;;;;;;5074994;28;20019;-65
2021/03/28 07:20:18;;;;;;;4.30;1.80;;;;;;;;;;5092775;28;20380;-65
2021/03/28 07:22:52;;;;;;;3.15;1.70;;;;;;;;;;5074435;28;20044;-65
2021/03/28 07:25:20;;;;;;;2.38;1.40;;;;;;;;;;5074873;28;20012;-65
2021/03/28 07:27:55;;;;;;;5.65;1.80;;;;;;;;;;5092413;28;20058;-65
2021/03/28 07:30:30;;;;;;;6.60;2.28;;;;;;;;;;5092710;28;20024;-65
2021/03/28 07:33:05;;;;;;;5.50;1.92;;;;;;;;;;5092767;28;20036;-65
2021/03/28 07:35:46;;;;;;;3.30;1.25;;;;;;;;;;5092458;28;20051;-65
2021/03/28 07:38:11;;;;;;;4.38;1.27;;;;;;;;;;5092748;28;20032;-65
2021/03/28 07:40:37;;;;;;;5.63;1.30;;;;;;;;;;5092657;28;20376;-65
2021/03/28 07:43:12;;;;;;;2.85;1.48;;;;;;;;;;5092681;28;20020;-65
2021/03/28 07:45:37;;;;;;;4.72;1.25;;;;;;;;;;5074479;28;20437;-65
2021/03/28 07:48:16;;;;;;;2.53;1.10;;;;;;;;;;5092666;28;20023;-65
2021/03/28 07:50:51;;;;;;;1.85;1.08;;;;;;;;;;5073896;28;20476;-64
2021/03/28 07:53:21;;;;;;;3.95;1.30;;;;;;;;;;5092434;28;20162;-64
2021/03/28 07:55:54;;;;;;;5.07;1.08;;;;;;;;;;5076413;28;20056;-64
2021/03/28 07:58:25;;;;;;;2.28;0.93;;;;;;;;;;5096593;28;20024;-64
2021/03/28 08:00:50;;;;;;;2.88;0.90;;;;;;;;;;5096445;28;20016;-64
2021/03/28 08:03:19;;;;;;;2.45;1.00;;;;;;;;;;5095646;28;20380;-64
2021/03/28 08:05:54;;;;;;;1.40;0.90;;;;;;;;;;5096522;28;20028;-64
2021/03/28 08:08:29;;;;;;;3.13;1.00;;;;;;;;;;5096144;28;20016;-65
2021/03/28 08:11:03;;;;;;;2.70;1.15;;;;;;;;;;5096025;28;20023;-65
2021/03/28 08:13:38;;;;;;;2.92;1.25;;;;;;;;;;5077816;28;20034;-65
2021/03/28 08:16:13;;;;;;;6.10;1.10;;;;;;;;;;5077779;28;20051;-65
2021/03/28 08:18:48;;;;;;;2.40;1.00;;;;;;;;;;5095857;28;20016;-65
2021/03/28 08:21:13;;;;;;;4.03;1.27;;;;;;;;;;5095960;28;20041;-65
2021/03/28 08:23:40;;;;;;;1.63;0.95;;;;;;;;;;5095805;28;20065;-65
2021/03/28 08:26:14;;;;;;;2.10;0.95;;;;;;;;;;5095780;28;20408;-65
2021/03/28 08:28:39;;;;;;;4.20;1.30;;;;;;;;;;5095534;28;20020;-65
2021/03/28 08:31:13;;;;;;;1.63;0.85;;;;;;;;;;5077792;28;20120;-65
2021/03/28 08:33:40;;;;;;;4.32;1.00;;;;;;;;;;5076544;28;20027;-65
2021/03/28 08:36:15;;;;;;;5.32;0.95;;;;;;;;;;5077402;28;20032;-65
2021/03/28 08:38:50;;;;;;;2.50;1.20;;;;;;;;;;5095578;28;20055;-65
2021/03/28 08:41:15;;;;;;;2.13;1.30;;;;;;;;;;5077344;28;20024;-64
2021/03/28 08:43:44;;;;;;;2.17;0.98;;;;;;;;;;5095711;28;20035;-64
2021/03/28 08:46:10;;;;;;;6.25;1.20;;;;;;;;;;5095321;28;20068;-64
2021/03/28 08:48:45;;;;;;;5.68;1.33;;;;;;;;;;5095274;28;20414;-65
2021/03/28 08:51:20;;;;;;;2.08;0.85;;;;;;;;;;5095296;28;20020;-65
2021/03/28 08:53:45;;;;;;;2.75;1.20;;;;;;;;;;5095540;28;20036;-65
2021/03/28 08:56:14;;;;;;;2.72;1.10;;;;;;;;;;5077089;28;20553;-65
2021/03/28 08:58:49;;;;;;;2.58;1.08;;;;;;;;;;5095215;28;20097;-65
2021/03/28 09:01:19;;;;;;;3.95;1.20;;;;;;;;;;5095429;28;20020;-64
2021/03/28 09:03:51;;;;;;;3.63;1.00;;;;;;;;;;5094918;28;20154;-65
2021/03/28 09:06:20;;;;;;;1.73;0.95;;;;;;;;;;5094727;28;20488;-65
2021/03/28 09:08:55;;;;;;;2.97;0.85;;;;;;;;;;5094486;28;20028;-65
2021/03/28 09:11:23;;;;;;;4.50;1.02;;;;;;;;;;5095131;28;20016;-65
2021/03/28 09:13:50;;;;;;;2.60;0.98;;;;;;;;;;5076746;28;20024;-65
2021/03/28 09:16:15;;;;;;;3.95;0.98;;;;;;;;;;5094995;28;20152;-65
2021/03/28 09:18:42;;;;;;;3.85;1.13;;;;;;;;;;5076426;28;20023;-65
2021/03/28 09:21:17;;;;;;;2.10;1.13;;;;;;;;;;5094961;28;20016;-65
2021/03/28 09:23:46;;;;;;;2.60;0.80;;;;;;;;;;5094959;28;20020;-65
2021/03/28 09:26:22;;;;;;;4.30;1.48;;;;;;;;;;5094812;28;20020;-65
2021/03/28 09:28:49;;;;;;;4.47;1.30;;;;;;;;;;5094508;28;20024;-65
2021/03/28 09:31:24;;;;;;;3.63;1.20;;;;;;;;;;5094737;28;20165;-65
2021/03/28 09:33:50;;;;;;;3.70;1.23;;;;;;;;;;5093706;28;20044;-65
2021/03/28 09:36:24;;;;;;;3.53;1.23;;;;;;;;;;5094746;28;20033;-65
2021/03/28 09:38:50;;;;;;;2.50;1.40;;;;;;;;;;5094133;28;20427;-65
2021/03/28 09:41:17;;;;;;;2.47;1.10;;;;;;;;;;5094640;28;20016;-65
2021/03/28 09:43:45;;;;;;;1.90;1.23;;;;;;;;;;5094142;28;20023;-65
2021/03/28 09:46:20;;;;;;;1.98;1.20;;;;;;;;;;5094373;28;20032;-65
2021/03/28 09:48:54;;;;;;;2.70;1.20;;;;;;;;;;5094048;28;20476;-64
2021/03/28 09:51:29;;;;;;;1.77;0.90;;;;;;;;;;5094148;28;20103;-65
2021/03/28 09:53:55;;;;;;;3.08;1.13;;;;;;;;;;5093970;28;20024;-65
2021/03/28 09:56:38;;;;;;;3.88;1.25;;;;;;;;;;5094121;28;20024;-65
2021/03/28 09:59:14;;;;;;;2.50;1.40;;;;;;;;;;5075861;28;20016;-65
2021/03/28 10:01:49;;;;;;;5.30;1.27;;;;;;;;;;5094195;28;20357;-65
2021/03/28 10:04:20;;;;;;;4.13;1.25;;;;;;;;;;5093321;28;20404;-65
2021/03/28 10:06:53;;;;;;;3.85;1.10;;;;;;;;;;5093650;28;20027;-65
2021/03/28 10:09:25;;;;;;;4.45;1.20;;;;;;;;;;5094023;28;20020;-65
2021/03/28 10:11:54;;;;;;;2.25;1.13;;;;;;;;;;5075907;28;20020;-65
2021/03/28 10:14:29;;;;;;;4.55;1.15;;;;;;;;;;5075964;28;20164;-65
2021/03/28 10:17:04;;;;;;;5.55;1.15;;;;;;;;;;5093605;28;20019;-65
2021/03/28 10:19:32;;;;;;;1.85;1.20;;;;;;;;;;5074730;28;20073;-65
2021/03/28 10:21:58;;;;;;;5.38;1.33;;;;;;;;;;5075441;28;20012;-65
2021/03/28 10:24:33;;;;;;;3.17;1.38;;;;;;;;;;5093508;28;20388;-65
2021/03/28 10:27:08;;;;;;;4.05;1.40;;;;;;;;;;5075492;28;20024;-65
2021/03/28 10:29:44;;;;;;;2.53;1.20;;;;;;;;;;5093396;28;20054;-65
2021/03/28 10:32:09;;;;;;;3.08;1.45;;;;;;;;;;5093381;28;20036;-66
2021/03/28 10:34:45;;;;;;;2.58;1.42;;;;;;;;;;5092544;28;20535;-66
2021/03/28 10:37:20;;;;;;;2.17;1.17;;;;;;;;;;5093192;28;20024;-66
2021/03/28 10:39:54;;;;;;;4.68;1.25;;;;;;;;;;5093304;28;20022;-65
2021/03/28 10:42:28;;;;;;;2.00;1.00;;;;;;;;;;5074782;28;20491;-65
2021/03/28 10:45:04;;;;;;;5.82;1.23;;;;;;;;;;5093197;28;20035;-65
2021/03/28 10:47:39;;;;;;;3.10;1.00;;;;;;;;;;5093396;28;20016;-65
2021/03/28 10:50:04;;;;;;;2.53;1.10;;;;;;;;;;5093075;28;20020;-65
2021/03/28 10:52:39;;;;;;;3.05;1.48;;;;;;;;;;5093096;28;20035;-65
2021/03/28 10:55:22;;;;;;;2.13;0.80;;;;;;;;;;5092953;28;20027;-65
2021/03/28 10:57:57;;;;;;;3.38;1.00;;;;;;;;;;5093153;28;20024;-65
2021/03/28 11:00:32;;;;;;;4.93;1.00;;;;;;;;;;5093155;28;20090;-65
2021/03/28 11:03:07;;;;;;;4.80;1.30;;;;;;;;;;5092748;28;20023;-65
2021/03/28 11:05:42;;;;;;;2.60;1.00;;;;;;;;;;5093220;28;20073;-66
2021/03/28 11:08:07;;;;;;;12.90;1.63;;;;;;;;;;5093025;28;20031;-65
2021/03/28 11:10:33;;;;;;;6.10;1.23;;;;;;;;;;5092689;28;20480;-66
2021/03/28 11:12:59;;;;;;;6.32;1.65;;;;;;;;;;5092799;28;20534;-66
2021/03/28 11:15:28;;;;;;;3.72;1.08;;;;;;;;;;5092688;28;20016;-66
2021/03/28 11:17:55;;;;;;;8.38;1.70;;;;;;;;;;5092821;28;20383;-65
2021/03/28 11:20:21;;;;;;;2.97;1.08;;;;;;;;;;5092641;28;20024;-66
2021/03/28 11:22:49;;;;;;;3.70;0.98;;;;;;;;;;5092512;28;20016;-65
2021/03/28 11:25:16;;;;;;;4.65;0.90;;;;;;;;;;5092894;28;20024;-65
2021/03/28 11:27:41;;;;;;;4.07;0.98;;;;;;;;;;5092712;28;20037;-66
2021/03/28 11:30:16;;;;;;;0.95;0.70;;;;;;;;;;5093711;28;20024;-66
2021/03/28 11:32:51;;;;;;;6.18;0.88;;;;;;;;;;5078306;28;20058;-66
2021/03/28 11:35:21;;;;;;;2.83;0.88;;;;;;;;;;5095830;28;20051;-66
2021/03/28 11:37:51;;;;;;;3.65;0.88;;;;;;;;;;5096848;28;20035;-66
2021/03/28 11:40:18;;;;;;;5.72;1.27;;;;;;;;;;5078591;28;20023;-66
2021/03/28 11:42:47;;;;;;;2.05;1.20;;;;;;;;;;5096346;28;20116;-66
2021/03/28 11:45:14;;;;;;;4.00;1.10;;;;;;;;;;5096744;28;20091;-66
2021/03/28 11:47:39;;;;;;;2.42;0.98;;;;;;;;;;5096508;28;20027;-66
2021/03/28 11:50:14;;;;;;;2.65;0.95;;;;;;;;;;5078157;28;20016;-66
2021/03/28 11:52:49;;;;;;;2.92;1.15;;;;;;;;;;5078016;28;20105;-66
2021/03/28 11:55:21;;;;;;;3.03;1.05;;;;;;;;;;5096278;28;20488;-66
2021/03/28 11:58:09;;;;;;;6.90;2.13;;;;;;;;;;5096436;28;20031;-66
2021/03/28 12:00:38;;;;;;;4.63;1.52;;;;;;;;;;5078043;28;20498;-66
2021/03/28 12:03:13;;;;;;;1.77;1.00;;;;;;;;;;5095991;28;20063;-66
2021/03/28 12:05:58;;;;;;;5.00;1.08;;;;;;;;;;5096373;28;20108;-66
2021/03/28 12:08:26;;;;;;;4.88;1.20;;;;;;;;;;5080960;28;20024;-66
2021/03/28 12:10:51;;;;;;;3.05;1.17;;;;;;;;;;5095647;28;20034;-66
2021/03/28 12:13:26;;;;;;;3.60;1.23;;;;;;;;;;5077828;28;20044;-66
2021/03/28 12:15:52;;;;;;;3.95;1.25;;;;;;;;;;5096617;28;20098;-66
2021/03/28 12:21:02;;;;;;;2.33;1.00;;;;;;;;;;5079197;28;20497;-66
2021/03/28 12:23:30;;;;;;;4.95;1.25;;;;;;;;;;5096231;28;20031;-65
2021/03/28 12:26:05;;;;;;;2.03;0.90;;;;;;;;;;5095821;28;20026;-66
2021/03/28 12:28:46;;;;;;;3.03;0.98;;;;;;;;;;5095634;28;20107;-66
2021/03/28 12:31:21;;;;;;;3.65;0.98;;;;;;;;;;5095930;28;20111;-66
2021/03/28 12:33:51;;;;;;;3.42;0.98;;;;;;;;;;5094765;28;20016;-65
2021/03/28 12:36:18;;;;;;;1.88;1.00;;;;;;;;;;5095755;28;20020;-65
2021/03/28 12:38:47;;;;;;;3.95;0.98;;;;;;;;;;5095291;28;20027;-66
2021/03/28 12:41:13;;;;;;;3.10;1.10;;;;;;;;;;5094789;28;20381;-66
2021/03/28 12:43:41;;;;;;;2.38;1.00;;;;;;;;;;5094955;28;20031;-65
2021/03/28 12:46:16;;;;;;;4.57;1.20;;;;;;;;;;5095294;28;20345;-65
2021/03/28 12:48:41;;;;;;;2.78;1.10;;;;;;;;;;5076955;28;20022;-65
2021/03/28 12:51:15;;;;;;;2.97;1.00;;;;;;;;;;5095290;28;20103;-66
2021/03/28 12:53:40;;;;;;;2.25;1.02;;;;;;;;;;5095465;28;20032;-66
2021/03/28 12:56:19;;;;;;;5.85;1.15;;;;;;;;;;5094925;28;20012;-66
2021/03/28 12:58:47;;;;;;;4.97;1.30;;;;;;;;;;5076757;28;20069;-65
2021/03/28 13:01:23;;;;;;;2.92;1.20;;;;;;;;;;5095161;28;20028;-66
2021/03/28 13:03:50;;;;;;;2.90;1.33;;;;;;;;;;5076531;28;20015;-66
2021/03/28 13:06:18;;;;;;;3.88;1.20;;;;;;;;;;5060519;28;20074;-65
2021/03/28 13:08:48;;;;;;;1.65;1.25;;;;;;;;;;5076743;28;20020;-65
2021/03/28 13:11:15;;;;;;;2.25;0.95;;;;;;;;;;5095092;28;20094;-65
2021/03/28 13:13:45;;;;;;;4.63;1.58;;;;;;;;;;5077345;28;20078;-65
2021/03/28 13:16:20;;;;;;;11.82;1.60;;;;;;;;;;5076757;28;20027;-65
2021/03/28 13:18:47;;;;;;;2.50;0.93;;;;;;;;;;5094662;28;20019;-65
2021/03/28 13:21:19;;;;;;;3.58;1.45;;;;;;;;;;5094530;28;20046;-65
2021/03/28 13:23:46;;;;;;;1.95;0.70;;;;;;;;;;5094836;28;20012;-65
2021/03/28 13:26:13;;;;;;;2.60;0.95;;;;;;;;;;5094524;28;20046;-66
2021/03/28 13:28:39;;;;;;;2.40;1.05;;;;;;;;;;5059600;28;20042;-65
2021/03/28 13:31:14;;;;;;;4.10;0.90;;;;;;;;;;5094571;28;20016;-65
2021/03/28 13:33:41;;;;;;;3.67;1.60;;;;;;;;;;5093667;28;20036;-65
2021/03/28 13:36:11;;;;;;;6.35;1.40;;;;;;;;;;5094427;28;20016;-65
2021/03/28 13:38:37;;;;;;;4.22;1.33;;;;;;;;;;5094360;28;20345;-65
2021/03/28 13:41:05;;;;;;;3.80;1.10;;;;;;;;;;5094362;28;20022;-65
2021/03/28 13:43:36;;;;;;;2.47;0.95;;;;;;;;;;5076542;28;20056;-65
2021/03/28 13:46:11;;;;;;;4.95;1.17;;;;;;;;;;5059245;28;20020;-65
2021/03/28 13:48:36;;;;;;;2.70;1.30;;;;;;;;;;5093901;28;20472;-65
2021/03/28 13:51:11;;;;;;;2.83;1.35;;;;;;;;;;5059279;28;20024;-65
2021/03/28 13:53:46;;;;;;;2.97;1.30;;;;;;;;;;5094087;28;20024;-65
2021/03/28 13:56:24;;;;;;;4.40;1.02;;;;;;;;;;5094021;28;20507;-65
2021/03/28 13:58:59;;;;;;;1.63;1.08;;;;;;;;;;5093828;28;20066;-66
2021/03/28 14:01:26;;;;;;;3.25;1.02;;;;;;;;;;5093967;28;20157;-65
2021/03/28 14:03:53;;;;;;;5.45;1.08;;;;;;;;;;5093329;28;20077;-65
2021/03/28 14:06:22;;;;;;;6.55;1.05;;;;;;;;;;5094128;28;20457;-67
2021/03/28 14:08:50;;;;;;;4.53;1.27;;;;;;;;;;5075788;28;20020;-65
2021/03/28 14:11:20;;;;;;;1.52;0.90;;;;;;;;;;5093635;28;20024;-65
2021/03/28 14:13:47;;;;;;;4.30;1.17;;;;;;;;;;5094251;28;20361;-65
2021/03/28 14:16:15;;;;;;;3.63;1.38;;;;;;;;;;5093783;28;20322;-65
2021/03/28 14:18:46;;;;;;;1.93;1.63;;;;;;;;;;5093429;28;20027;-65
2021/03/28 14:21:12;;;;;;;3.90;1.77;;;;;;;;;;5093738;28;20073;-65
2021/03/28 14:23:44;;;;;;;3.22;1.20;;;;;;;;;;5093470;28;20476;-65
2021/03/28 14:26:09;;;;;;;6.72;1.42;;;;;;;;;;5075585;28;20020;-65
2021/03/28 14:28:36;;;;;;;4.15;1.40;;;;;;;;;;5093257;28;20023;-65
2021/03/28 14:31:11;;;;;;;4.78;1.10;;;;;;;;;;5075147;28;20362;-65
2021/03/28 14:33:47;;;;;;;3.53;1.33;;;;;;;;;;5074589;28;20031;-65
2021/03/28 14:36:13;;;;;;;5.38;1.38;;;;;;;;;;5075289;28;20099;-65
2021/03/28 14:38:48;;;;;;;3.28;1.30;;;;;;;;;;5092986;28;20023;-65
2021/03/28 14:41:15;;;;;;;2.72;1.20;;;;;;;;;;5058372;28;20027;-64
2021/03/28 14:43:41;;;;;;;5.32;1.10;;;;;;;;;;5075024;28;20099;-65
2021/03/28 14:46:19;;;;;;;1.77;1.30;;;;;;;;;;5093020;28;20012;-65
2021/03/28 14:48:56;;;;;;;4.95;1.30;;;;;;;;;;5074912;28;20119;-65
2021/03/28 14:51:25;;;;;;;3.13;1.05;;;;;;;;;;5075082;28;20045;-65
2021/03/28 14:53:56;;;;;;;4.55;1.30;;;;;;;;;;5093012;28;20020;-65
2021/03/28 14:56:32;;;;;;;5.22;1.42;;;;;;;;;;5092921;28;20563;-65
2021/03/28 14:59:10;;;;;;;3.90;1.02;;;;;;;;;;5092967;28;20020;-65
2021/03/28 15:01:36;;;;;;;6.50;2.30;;;;;;;;;;5074931;28;20044;-65
2021/03/28 15:04:11;;;;;;;9.07;1.90;;;;;;;;;;5092058;28;20016;-65
2021/03/28 15:06:40;;;;;;;4.28;1.45;;;;;;;;;;5074542;28;20028;-65
2021/03/28 15:09:10;;;;;;;8.95;1.92;;;;;;;;;;5074617;28;20085;-65
2021/03/28 15:11:36;;;;;;;7.40;2.45;;;;;;;;;;5075042;28;20020;-65